createdAt,value
2022-11-17T00:00:19.666Z,61.40
2022-11-17T00:02:47.927Z,59.77
2022-11-17T00:05:15.218Z,65.10
2022-11-17T00:07:44.809Z,59.87
2022-11-17T00:10:15.439Z,64.70
2022-11-17T00:13:01.434Z,62.97
2022-11-17T00:15:28.633Z,64.70
2022-11-17T00:18:14.035Z,70.33
2022-11-17T00:21:00.460Z,65.60
2022-11-17T00:23:47.176Z,69.87
2022-11-17T00:26:19.154Z,73.13
2022-11-17T00:28:46.220Z,72.07
2022-11-17T00:31:33.185Z,66.30
2022-11-17T00:34:06.444Z,65.50
2022-11-17T00:36:40.072Z,67.17
2022-11-17T00:39:08.426Z,64.73
2022-11-17T00:41:35.814Z,70.93
2022-11-17T00:44:02.698Z,75.67
2022-11-17T00:46:30.101Z,70.27
2022-11-17T00:48:56.982Z,69.43
2022-11-17T00:51:25.546Z,64.70
2022-11-17T00:53:52.755Z,64.50
2022-11-17T00:56:19.736Z,65.67
2022-11-17T00:58:46.757Z,69.93
2022-11-17T01:01:14.380Z,71.20
2022-11-17T01:03:41.562Z,72.97
2022-11-17T01:06:18.539Z,71.33
2022-11-17T01:08:45.821Z,69.43
2022-11-17T01:11:13.942Z,67.60
2022-11-17T01:13:42.070Z,65.67
2022-11-17T01:16:14.373Z,67.40
2022-11-17T01:18:42.507Z,73.73
2022-11-17T01:21:21.870Z,72.33
2022-11-17T01:23:51.469Z,73.67
2022-11-17T01:26:20.681Z,71.53
2022-11-17T01:28:48.765Z,69.13
2022-11-17T01:31:20.775Z,64.33
2022-11-17T01:33:48.692Z,67.47
2022-11-17T01:36:22.124Z,64.80
2022-11-17T01:38:49.459Z,73.23
2022-11-17T01:41:25.184Z,66.53
2022-11-17T01:43:54.965Z,76.20
2022-11-17T01:46:37.221Z,78.07
2022-11-17T01:49:04.040Z,80.23
2022-11-17T01:51:35.356Z,70.97
2022-11-17T01:54:02.937Z,67.97
2022-11-17T01:56:38.917Z,72.57
2022-11-17T01:59:11.550Z,76.90
2022-11-17T02:01:55.619Z,77.37
2022-11-17T02:04:26.659Z,75.37
2022-11-17T02:07:14.493Z,72.70
2022-11-17T02:09:42.581Z,64.97
2022-11-17T02:12:12.952Z,68.77
2022-11-17T02:14:40.521Z,72.93
2022-11-17T02:17:14.048Z,66.00
2022-11-17T02:19:44.382Z,72.80
2022-11-17T02:22:33.746Z,71.60
2022-11-17T02:25:15.714Z,61.40
2022-11-17T02:28:11.458Z,68.30
2022-11-17T02:30:49.200Z,67.40
2022-11-17T02:33:37.811Z,64.80
2022-11-17T02:36:11.820Z,66.63
2022-11-17T02:38:56.174Z,68.03
2022-11-17T02:41:58.378Z,70.70
2022-11-17T02:44:33.707Z,63.10
2022-11-17T02:47:20.286Z,66.40
2022-11-17T02:49:53.804Z,69.30
2022-11-17T02:52:22.027Z,71.67
2022-11-17T02:54:48.929Z,72.70
2022-11-17T02:57:33.420Z,70.40
2022-11-17T03:00:04.238Z,70.67
2022-11-17T03:02:53.068Z,65.80
2022-11-17T03:05:26.841Z,74.30
2022-11-17T03:08:11.990Z,64.80
2022-11-17T03:11:02.959Z,74.73
2022-11-17T03:13:48.471Z,78.53
2022-11-17T03:16:27.682Z,70.63
2022-11-17T03:19:09.656Z,81.53
2022-11-17T03:22:09.407Z,79.20
2022-11-17T03:24:49.424Z,82.73
2022-11-17T03:27:25.610Z,72.87
2022-11-17T03:29:59.787Z,70.77
2022-11-17T03:32:31.004Z,76.10
2022-11-17T03:35:03.305Z,68.03
2022-11-17T03:37:34.064Z,61.27
2022-11-17T03:40:09.045Z,69.83
2022-11-17T03:42:40.931Z,62.60
2022-11-17T03:45:22.078Z,61.83
2022-11-17T03:47:53.748Z,58.30
2022-11-17T03:50:30.321Z,61.93
2022-11-17T03:52:57.514Z,61.70
2022-11-17T03:55:30.961Z,61.80
2022-11-17T03:58:05.276Z,69.87
2022-11-17T04:00:34.956Z,63.83
2022-11-17T04:03:01.808Z,71.80
2022-11-17T04:05:28.616Z,74.03
2022-11-17T04:07:55.514Z,59.33
2022-11-17T04:10:25.854Z,58.27
2022-11-17T04:13:12.807Z,58.60
2022-11-17T04:15:58.963Z,62.47
2022-11-17T04:18:26.656Z,59.70
2022-11-17T04:20:55.918Z,75.73
2022-11-17T04:23:24.044Z,63.60
2022-11-17T04:26:12.911Z,59.27
2022-11-17T04:28:50.917Z,70.77
2022-11-17T04:31:38.044Z,61.77
2022-11-17T04:34:06.135Z,68.37
2022-11-17T04:36:37.186Z,81.77
2022-11-17T04:39:04.444Z,102.23
2022-11-17T04:41:49.823Z,112.77
2022-11-17T04:44:18.177Z,158.03
2022-11-17T04:46:46.271Z,153.93
2022-11-17T04:49:15.090Z,107.90
2022-11-17T04:51:42.591Z,106.83
2022-11-17T04:54:11.056Z,97.73
2022-11-17T04:56:39.632Z,92.47
2022-11-17T04:59:07.232Z,88.63
2022-11-17T05:01:34.388Z,83.90
2022-11-17T05:04:13.179Z,82.87
2022-11-17T05:06:43.812Z,87.10
2022-11-17T05:09:13.745Z,87.40
2022-11-17T05:12:00.320Z,78.93
2022-11-17T05:14:28.623Z,82.97
2022-11-17T05:17:11.952Z,78.00
2022-11-17T05:19:40.931Z,80.47
2022-11-17T05:22:27.857Z,80.27
2022-11-17T05:24:56.259Z,79.17
2022-11-17T05:27:23.727Z,77.50
2022-11-17T05:29:50.580Z,77.03
2022-11-17T05:32:17.893Z,75.70
2022-11-17T05:34:45.127Z,74.60
2022-11-17T05:37:12.314Z,72.50
2022-11-17T05:39:39.181Z,67.07
2022-11-17T05:42:06.260Z,74.53
2022-11-17T05:44:33.095Z,80.37
2022-11-17T05:47:02.410Z,73.47
2022-11-17T05:49:33.364Z,64.23
2022-11-17T05:52:00.933Z,78.63
2022-11-17T05:54:27.869Z,77.73
2022-11-17T05:57:01.065Z,70.47
2022-11-17T05:59:46.062Z,87.50
2022-11-17T06:02:21.517Z,90.90
2022-11-17T06:04:49.700Z,71.70
2022-11-17T06:07:18.080Z,57.63
2022-11-17T06:09:46.371Z,59.33
2022-11-17T06:12:13.420Z,58.50
2022-11-17T06:14:40.273Z,58.57
2022-11-17T06:17:22.130Z,57.50
2022-11-17T06:19:57.962Z,57.97
2022-11-17T06:22:27.608Z,59.53
2022-11-17T06:24:55.611Z,61.90
2022-11-17T06:27:23.274Z,63.20
2022-11-17T06:29:50.455Z,59.63
2022-11-17T06:32:18.286Z,64.40
2022-11-17T06:34:54.832Z,60.83
2022-11-17T06:37:25.079Z,65.00
2022-11-17T06:39:52.423Z,62.53
2022-11-17T06:42:19.605Z,57.07
2022-11-17T06:44:46.570Z,59.90
2022-11-17T06:47:13.456Z,56.47
2022-11-17T06:49:40.380Z,55.83
2022-11-17T06:52:09.280Z,59.33
2022-11-17T06:54:36.240Z,57.90
2022-11-17T06:57:03.993Z,55.17
2022-11-17T06:59:30.909Z,53.17
2022-11-17T07:01:57.757Z,48.23
2022-11-17T07:08:00.395Z,55.67
2022-11-17T07:10:28.574Z,54.27
2022-11-17T07:12:58.575Z,57.23
2022-11-17T07:15:27.200Z,58.50
2022-11-17T07:17:54.327Z,59.10
2022-11-17T07:20:21.521Z,60.17
2022-11-17T07:22:48.803Z,62.23
2022-11-17T07:25:21.055Z,63.10
2022-11-17T07:27:57.188Z,58.07
2022-11-17T07:30:24.240Z,58.10
2022-11-17T07:32:54.641Z,60.63
2022-11-17T07:35:22.089Z,57.73
2022-11-17T07:37:49.144Z,56.77
2022-11-17T07:40:16.353Z,60.67
2022-11-17T07:42:48.913Z,66.80
2022-11-17T07:45:17.102Z,59.40
2022-11-17T07:47:44.104Z,55.27
2022-11-17T07:50:11.606Z,55.33
2022-11-17T07:52:41.398Z,49.53
2022-11-17T07:55:08.785Z,54.10
2022-11-17T07:57:36.728Z,52.93
2022-11-17T08:00:07.556Z,50.70
2022-11-17T08:02:43.846Z,52.77
2022-11-17T08:05:12.402Z,52.90
2022-11-17T08:07:39.557Z,53.97
2022-11-17T08:10:08.312Z,52.77
2022-11-17T08:12:35.372Z,54.80
2022-11-17T08:15:02.505Z,63.50
2022-11-17T08:17:31.573Z,66.67
2022-11-17T08:20:00.956Z,69.73
2022-11-17T08:22:29.899Z,83.77
2022-11-17T08:24:56.877Z,70.93
2022-11-17T08:27:25.086Z,69.87
2022-11-17T08:29:52.871Z,69.20
2022-11-17T08:32:20.449Z,75.80
2022-11-17T08:34:47.744Z,67.13
2022-11-17T08:37:15.004Z,68.10
2022-11-17T08:39:42.046Z,74.57
2022-11-17T08:42:09.142Z,77.43
2022-11-17T08:44:37.495Z,75.93
2022-11-17T08:47:04.414Z,73.77
2022-11-17T08:49:31.250Z,69.90
2022-11-17T08:51:58.177Z,68.00
2022-11-17T08:54:25.159Z,65.70
2022-11-17T08:56:57.353Z,65.40
2022-11-17T08:59:26.060Z,62.60
2022-11-17T09:01:53.299Z,74.60
2022-11-17T09:04:20.412Z,65.50
2022-11-17T09:06:47.379Z,65.73
2022-11-17T09:09:17.083Z,59.57
2022-11-17T09:11:44.023Z,60.40
2022-11-17T09:14:10.972Z,55.73
2022-11-17T09:16:38.403Z,56.90
2022-11-17T09:19:05.843Z,58.30
2022-11-17T09:21:34.078Z,57.00
2022-11-17T09:24:01.337Z,51.97
2022-11-17T09:26:28.335Z,50.80
2022-11-17T09:28:55.495Z,57.47
2022-11-17T09:31:23.682Z,52.03
2022-11-17T09:33:50.833Z,59.23
2022-11-17T09:36:18.323Z,56.47
2022-11-17T09:38:46.810Z,67.73
2022-11-17T09:41:16.575Z,57.60
2022-11-17T09:43:49.705Z,51.07
2022-11-17T09:46:25.666Z,52.50
2022-11-17T09:49:12.429Z,52.50
2022-11-17T09:51:44.965Z,46.70
2022-11-17T09:54:43.232Z,50.00
2022-11-17T09:57:37.441Z,51.13
2022-11-17T10:00:19.642Z,53.00
2022-11-17T10:02:46.846Z,51.77
2022-11-17T10:05:28.055Z,46.33
2022-11-17T10:08:00.393Z,56.17
2022-11-17T10:10:45.618Z,54.00
2022-11-17T10:13:33.823Z,49.77
2022-11-17T10:16:08.003Z,60.43
2022-11-17T10:18:38.341Z,49.10
2022-11-17T10:21:07.349Z,49.17
2022-11-17T10:23:41.156Z,50.23
2022-11-17T10:26:16.009Z,53.30
2022-11-17T10:28:47.183Z,50.20
2022-11-17T10:31:20.397Z,53.13
2022-11-17T10:33:50.314Z,62.93
2022-11-17T10:36:29.049Z,47.87
2022-11-17T10:38:59.316Z,47.40
2022-11-17T10:41:40.910Z,51.10
2022-11-17T10:44:30.664Z,48.57
2022-11-17T10:47:04.763Z,56.60
2022-11-17T10:49:35.259Z,52.63
2022-11-17T10:52:06.983Z,53.80
2022-11-17T10:54:34.105Z,55.40
2022-11-17T10:57:05.627Z,60.70
2022-11-17T10:59:44.378Z,53.27
2022-11-17T11:02:31.027Z,53.67
2022-11-17T11:05:14.092Z,50.60
2022-11-17T11:07:41.753Z,53.20
2022-11-17T11:10:20.591Z,47.60
2022-11-17T11:13:09.093Z,47.00
2022-11-17T11:15:37.291Z,43.07
2022-11-17T11:18:15.876Z,43.87
2022-11-17T11:21:13.420Z,41.50
2022-11-17T11:23:46.410Z,45.60
2022-11-17T11:26:25.562Z,43.07
2022-11-17T11:29:07.847Z,41.70
2022-11-17T11:32:11.666Z,45.57
2022-11-17T11:34:54.395Z,44.20
2022-11-17T11:37:28.628Z,41.83
2022-11-17T11:40:27.184Z,38.50
2022-11-17T11:43:24.456Z,35.87
2022-11-17T11:46:01.357Z,35.03
2022-11-17T11:48:57.131Z,34.37
2022-11-17T11:51:38.375Z,32.43
2022-11-17T11:54:30.975Z,31.77
2022-11-17T11:56:58.145Z,26.10
2022-11-17T11:59:45.679Z,25.43
2022-11-17T12:02:12.774Z,22.57
2022-11-17T12:04:52.673Z,28.23
2022-11-17T12:07:41.329Z,18.97
2022-11-17T12:10:30.069Z,19.77
2022-11-17T12:13:00.327Z,18.47
2022-11-17T12:15:27.745Z,21.30
2022-11-17T12:18:22.353Z,20.53
2022-11-17T12:20:57.814Z,17.73
2022-11-17T12:23:31.037Z,18.40
2022-11-17T12:26:03.109Z,19.87
2022-11-17T12:28:40.772Z,16.30
2022-11-17T12:31:13.110Z,15.83
2022-11-17T12:33:52.016Z,16.17
2022-11-17T12:36:30.193Z,18.67
2022-11-17T12:38:59.977Z,16.13
2022-11-17T12:41:48.645Z,15.27
2022-11-17T12:44:37.471Z,15.43
2022-11-17T12:47:15.272Z,17.83
2022-11-17T12:49:57.296Z,13.47
2022-11-17T12:52:52.111Z,13.63
2022-11-17T12:55:42.299Z,15.23
2022-11-17T12:58:10.836Z,14.77
2022-11-17T13:00:53.383Z,11.97
2022-11-17T13:03:36.902Z,14.23
2022-11-17T13:06:33.747Z,14.50
2022-11-17T13:09:01.124Z,16.57
2022-11-17T13:11:29.003Z,13.37
2022-11-17T13:14:14.477Z,13.17
2022-11-17T13:16:50.008Z,12.20
2022-11-17T13:19:40.428Z,12.93
2022-11-17T13:22:21.576Z,14.80
2022-11-17T13:24:50.722Z,12.83
2022-11-17T13:27:25.516Z,9.57
2022-11-17T13:29:53.335Z,12.87
2022-11-17T13:32:23.458Z,11.83
2022-11-17T13:34:59.965Z,11.47
2022-11-17T13:37:28.818Z,12.37
2022-11-17T13:40:20.354Z,15.30
2022-11-17T13:42:47.888Z,14.23
2022-11-17T13:45:16.072Z,15.67
2022-11-17T13:47:48.960Z,12.07
2022-11-17T13:50:21.716Z,16.13
2022-11-17T13:52:53.577Z,22.53
2022-11-17T13:55:21.881Z,19.47
2022-11-17T13:57:54.250Z,20.07
2022-11-17T14:00:22.974Z,18.00
2022-11-17T14:02:57.424Z,18.43
2022-11-17T14:05:27.620Z,18.07
2022-11-17T14:07:57.013Z,23.57
2022-11-17T14:10:33.119Z,23.70
2022-11-17T14:13:02.919Z,30.80
2022-11-17T14:15:53.284Z,24.80
2022-11-17T14:18:43.442Z,23.67
2022-11-17T14:21:16.867Z,18.53
2022-11-17T14:23:44.843Z,20.30
2022-11-17T14:26:17.907Z,17.20
2022-11-17T14:28:44.926Z,16.87
2022-11-17T14:31:13.904Z,18.03
2022-11-17T14:33:41.345Z,23.90
2022-11-17T14:36:16.608Z,22.17
2022-11-17T14:38:47.211Z,18.40
2022-11-17T14:41:18.289Z,22.40
2022-11-17T14:44:08.647Z,24.93
2022-11-17T14:46:35.906Z,23.07
2022-11-17T14:49:05.495Z,26.03
2022-11-17T14:51:33.099Z,24.17
2022-11-17T14:54:01.344Z,23.27
2022-11-17T14:56:28.295Z,25.63
2022-11-17T14:59:02.259Z,31.70
2022-11-17T15:01:31.773Z,32.93
2022-11-17T15:04:27.066Z,32.70
2022-11-17T15:07:17.053Z,37.90
2022-11-17T15:09:45.635Z,41.30
2022-11-17T15:12:12.562Z,42.60
2022-11-17T15:14:39.484Z,37.33
2022-11-17T15:17:11.296Z,47.57
2022-11-17T15:19:41.042Z,32.17
2022-11-17T15:22:07.945Z,37.50
2022-11-17T15:24:34.814Z,35.50
2022-11-17T15:27:02.132Z,29.03
2022-11-17T15:29:31.492Z,29.80
2022-11-17T15:31:58.415Z,25.87
2022-11-17T15:34:25.288Z,27.70
2022-11-17T15:36:52.563Z,30.10
2022-11-17T15:39:20.738Z,29.47
2022-11-17T15:41:48.875Z,26.73
2022-11-17T15:44:15.965Z,27.07
2022-11-17T15:46:47.079Z,25.20
2022-11-17T15:49:16.575Z,26.83
2022-11-17T15:51:44.355Z,27.37
2022-11-17T15:54:16.718Z,27.50
2022-11-17T15:56:47.448Z,28.97
2022-11-17T15:59:16.819Z,33.07
2022-11-17T16:01:44.797Z,30.27
2022-11-17T16:04:15.568Z,46.07
2022-11-17T16:06:44.500Z,36.70
2022-11-17T16:09:13.524Z,37.60
2022-11-17T16:11:41.247Z,34.53
2022-11-17T16:14:08.533Z,45.30
2022-11-17T16:16:37.470Z,53.83
2022-11-17T16:19:05.772Z,45.57
2022-11-17T16:21:33.004Z,42.07
2022-11-17T16:24:04.572Z,37.07
2022-11-17T16:26:31.773Z,40.83
2022-11-17T16:29:04.765Z,47.20
2022-11-17T16:31:34.003Z,56.27
2022-11-17T16:34:12.291Z,49.13
2022-11-17T16:36:41.619Z,41.73
2022-11-17T16:39:13.870Z,42.00
2022-11-17T16:41:43.036Z,30.13
2022-11-17T16:44:12.264Z,35.00
2022-11-17T16:46:42.817Z,40.80
2022-11-17T16:49:13.230Z,40.60
2022-11-17T16:51:46.185Z,38.53
2022-11-17T16:54:14.106Z,41.03
2022-11-17T16:56:41.109Z,34.37
2022-11-17T16:59:09.376Z,41.10
2022-11-17T17:01:36.454Z,42.53
2022-11-17T17:04:06.569Z,35.57
2022-11-17T17:06:34.755Z,40.43
2022-11-17T17:09:04.523Z,54.97
2022-11-17T17:11:34.165Z,59.43
2022-11-17T17:14:05.600Z,46.63
2022-11-17T17:16:35.039Z,39.60
2022-11-17T17:19:04.499Z,23.40
2022-11-17T17:21:32.772Z,28.27
2022-11-17T17:24:00.117Z,23.23
2022-11-17T17:26:29.539Z,25.00
2022-11-17T17:29:00.231Z,23.33
2022-11-17T17:31:32.205Z,27.33
2022-11-17T17:34:02.412Z,26.37
2022-11-17T17:36:30.551Z,25.87
2022-11-17T17:39:01.820Z,24.10
2022-11-17T17:41:34.369Z,26.40
2022-11-17T17:44:04.111Z,26.20
2022-11-17T17:46:33.739Z,26.80
2022-11-17T17:49:00.696Z,31.10
2022-11-17T17:51:29.252Z,29.43
2022-11-17T17:53:58.622Z,36.03
2022-11-17T17:56:25.864Z,36.77
2022-11-17T17:58:57.033Z,32.60
2022-11-17T18:01:28.978Z,27.80
2022-11-17T18:04:04.880Z,33.07
2022-11-17T18:06:41.607Z,35.67
2022-11-17T18:09:14.707Z,35.67
2022-11-17T18:11:47.991Z,39.20
2022-11-17T18:14:19.624Z,54.47
2022-11-17T18:16:46.704Z,48.83
2022-11-17T18:19:15.392Z,42.57
2022-11-17T18:21:43.399Z,43.07
2022-11-17T18:24:11.609Z,41.90
2022-11-17T18:26:40.900Z,31.55
2022-11-17T18:29:12.839Z,32.07
2022-11-17T18:31:39.844Z,38.13
2022-11-17T18:34:13.190Z,37.77
2022-11-17T18:36:40.646Z,36.27
2022-11-17T18:39:07.908Z,38.40
2022-11-17T18:41:35.995Z,24.93
2022-11-17T18:44:03.112Z,19.47
2022-11-17T18:46:32.555Z,18.23
2022-11-17T18:49:02.268Z,22.13
2022-11-17T18:51:31.454Z,19.77
2022-11-17T18:54:01.377Z,19.50
2022-11-17T18:56:32.030Z,20.13
2022-11-17T18:58:59.522Z,22.97
2022-11-17T19:01:28.860Z,25.13
2022-11-17T19:03:57.955Z,29.17
2022-11-17T19:06:25.836Z,27.23
2022-11-17T19:08:56.521Z,21.17
2022-11-17T19:11:23.682Z,24.93
2022-11-17T19:13:51.685Z,29.00
2022-11-17T19:16:24.834Z,35.37
2022-11-17T19:18:54.179Z,43.90
2022-11-17T19:21:26.792Z,37.80
2022-11-17T19:23:57.348Z,36.80
2022-11-17T19:26:29.566Z,43.77
2022-11-17T19:29:00.100Z,40.60
2022-11-17T19:31:28.266Z,42.63
2022-11-17T19:33:58.037Z,33.40
2022-11-17T19:36:30.420Z,31.67
2022-11-17T19:38:59.677Z,25.80
2022-11-17T19:41:29.213Z,25.57
2022-11-17T19:43:58.433Z,23.90
2022-11-17T19:46:28.959Z,25.77
2022-11-17T19:48:59.655Z,29.00
2022-11-17T19:51:29.416Z,23.00
2022-11-17T19:53:58.796Z,24.17
2022-11-17T19:56:26.883Z,22.10
2022-11-17T19:58:54.289Z,26.10
2022-11-17T20:01:24.171Z,25.70
2022-11-17T20:03:53.229Z,31.73
2022-11-17T20:06:25.152Z,28.83
2022-11-17T20:08:52.210Z,28.13
2022-11-17T20:11:23.350Z,28.30
2022-11-17T20:13:50.810Z,25.33
2022-11-17T20:16:21.573Z,25.27
2022-11-17T20:18:51.030Z,24.50
2022-11-17T20:21:18.963Z,25.47
2022-11-17T20:23:46.830Z,24.23
2022-11-17T20:26:18.794Z,26.43
2022-11-17T20:28:46.264Z,31.07
2022-11-17T20:31:21.517Z,28.43
2022-11-17T20:33:52.067Z,25.87
2022-11-17T20:36:20.934Z,27.80
2022-11-17T20:39:02.138Z,32.57
2022-11-17T20:41:30.223Z,28.37
2022-11-17T20:43:58.830Z,27.60
2022-11-17T20:46:26.353Z,31.70
2022-11-17T20:48:53.663Z,30.23
2022-11-17T20:51:23.315Z,35.27
2022-11-17T20:53:51.011Z,33.10
2022-11-17T20:56:18.839Z,30.03
2022-11-17T20:58:45.814Z,33.83
2022-11-17T21:01:20.675Z,28.17
2022-11-17T21:03:47.861Z,30.17
2022-11-17T21:06:16.014Z,29.10
2022-11-17T21:08:44.816Z,28.77
2022-11-17T21:11:32.905Z,30.13
2022-11-17T21:14:00.686Z,26.17
2022-11-17T21:16:27.871Z,29.60
2022-11-17T21:18:58.082Z,38.67
2022-11-17T21:21:28.923Z,32.60
2022-11-17T21:23:57.537Z,31.70
2022-11-17T21:26:24.797Z,28.17
2022-11-17T21:28:52.246Z,27.57
2022-11-17T21:31:22.322Z,28.40
2022-11-17T21:33:53.846Z,29.73
2022-11-17T21:36:22.201Z,31.93
2022-11-17T21:38:49.438Z,30.73
2022-11-17T21:41:25.178Z,32.40
2022-11-17T21:43:53.359Z,35.73
2022-11-17T21:46:25.031Z,34.40
2022-11-17T21:48:52.991Z,31.90
2022-11-17T21:51:35.355Z,29.50
2022-11-17T21:54:04.457Z,31.83
2022-11-17T21:56:32.229Z,33.20
2022-11-17T21:59:01.987Z,28.63
2022-11-17T22:01:29.656Z,27.67
2022-11-17T22:03:56.791Z,30.50
2022-11-17T22:06:25.611Z,30.03
2022-11-17T22:08:54.265Z,28.17
2022-11-17T22:11:36.717Z,27.97
2022-11-17T22:14:13.093Z,27.27
2022-11-17T22:16:45.839Z,27.40
2022-11-17T22:19:14.579Z,30.53
2022-11-17T22:21:43.091Z,28.90
2022-11-17T22:24:12.275Z,29.30
2022-11-17T22:26:41.327Z,25.80
2022-11-17T22:29:15.547Z,25.47
2022-11-17T22:31:42.922Z,24.80
2022-11-17T22:34:10.031Z,23.97
2022-11-17T22:36:36.874Z,26.50
2022-11-17T22:39:04.160Z,24.83
2022-11-17T22:41:31.381Z,25.57
2022-11-17T22:43:58.711Z,28.57
2022-11-17T22:46:28.058Z,23.67
2022-11-17T22:48:55.069Z,26.87
2022-11-17T22:51:40.579Z,23.17
2022-11-17T22:54:08.164Z,22.27
2022-11-17T22:56:35.944Z,24.27
2022-11-17T22:59:02.952Z,24.43
2022-11-17T23:01:29.831Z,22.90
2022-11-17T23:03:56.659Z,23.57
2022-11-17T23:06:24.276Z,25.80
2022-11-17T23:08:51.217Z,26.70
2022-11-17T23:14:08.022Z,24.33
2022-11-17T23:16:35.944Z,23.20
2022-11-17T23:19:03.720Z,23.87
2022-11-17T23:21:30.583Z,23.77
2022-11-17T23:23:57.403Z,30.00
2022-11-17T23:26:24.401Z,26.17
2022-11-17T23:28:51.270Z,27.87
2022-11-17T23:31:18.499Z,24.77
2022-11-17T23:33:47.347Z,28.10
2022-11-17T23:36:19.961Z,25.70
2022-11-17T23:38:48.282Z,24.67
2022-11-17T23:41:17.144Z,25.90
2022-11-17T23:43:43.984Z,25.63
2022-11-17T23:46:15.109Z,26.43
2022-11-17T23:48:43.012Z,22.57
2022-11-17T23:51:18.827Z,23.50
2022-11-17T23:53:46.965Z,36.67
2022-11-17T23:56:13.879Z,33.23
2022-11-17T23:58:41.328Z,30.37
